Terminal Aerodrome Forecast
Issued by NWS Mt. Holly, NJ

Home | Current Version | Previous Version | Text Only | Print | Product List | Glossary On
Versions: 1 2 3 4 5 6 7 8 9 10 11 12 13 14 15 16 17 18
000
FTAK31 PANC 091141
TAFABE
TAF
PABE 091141Z 0912/1012 01015KT P6SM SKC
     FM100700 03015KT P6SM BKN025=

USA.gov is the U.S. government's official web portal to all federal, state and local government web resources and services.